createdAt,value
2022-09-02T00:01:33.444Z,5.25
2022-09-02T00:04:03.930Z,7.30
2022-09-02T00:06:31.684Z,3.10
2022-09-02T00:08:59.699Z,2.33
2022-09-02T00:11:29.408Z,3.83
2022-09-02T00:13:58.480Z,1.75
2022-09-02T00:16:26.243Z,2.22
2022-09-02T00:18:56.645Z,1.95
2022-09-02T00:21:25.806Z,2.85
2022-09-02T00:23:53.927Z,1.80
2022-09-02T00:26:21.579Z,1.55
2022-09-02T00:28:55.790Z,4.53
2022-09-02T00:31:25.796Z,2.65
2022-09-02T00:33:55.824Z,4.03
2022-09-02T00:36:23.011Z,2.78
2022-09-02T00:38:50.540Z,1.73
2022-09-02T00:41:23.214Z,3.30
2022-09-02T00:43:55.630Z,5.85
2022-09-02T00:46:26.264Z,5.00
2022-09-02T00:49:12.257Z,2.28
2022-09-02T00:51:46.861Z,5.38
2022-09-02T00:54:16.947Z,6.28
2022-09-02T00:56:47.168Z,1.55
2022-09-02T00:59:22.797Z,3.45
2022-09-02T01:01:52.092Z,1.45
2022-09-02T01:04:19.601Z,2.55
2022-09-02T01:06:51.750Z,1.73
2022-09-02T01:09:20.380Z,4.57
2022-09-02T01:11:53.739Z,3.88
2022-09-02T01:14:22.916Z,2.05
2022-09-02T01:16:55.288Z,2.70
2022-09-02T01:19:30.004Z,4.10
2022-09-02T01:21:58.861Z,1.70
2022-09-02T01:24:28.990Z,1.52
2022-09-02T01:26:57.982Z,2.05
2022-09-02T01:29:27.243Z,4.18
2022-09-02T01:31:55.070Z,2.05
2022-09-02T01:34:23.095Z,3.00
2022-09-02T01:36:53.375Z,1.67
2022-09-02T01:39:21.082Z,2.58
2022-09-02T01:41:48.270Z,3.15
2022-09-02T01:44:18.061Z,2.42
2022-09-02T01:46:49.564Z,1.88
2022-09-02T01:49:17.615Z,1.67
2022-09-02T01:51:45.308Z,4.93
2022-09-02T01:54:12.463Z,2.92
2022-09-02T01:56:39.761Z,2.10
2022-09-02T01:59:08.478Z,2.47
2022-09-02T02:01:36.163Z,1.88
2022-09-02T02:04:04.833Z,3.10
2022-09-02T02:06:32.934Z,4.35
2022-09-02T02:09:00.184Z,1.48
2022-09-02T02:11:28.240Z,1.38
2022-09-02T02:13:59.952Z,5.78
2022-09-02T02:16:27.055Z,5.82
2022-09-02T02:18:54.301Z,3.58
2022-09-02T02:21:22.622Z,1.83
2022-09-02T02:23:53.880Z,1.92
2022-09-02T02:26:21.134Z,3.60
2022-09-02T02:28:48.939Z,3.33
2022-09-02T02:31:16.344Z,2.92
2022-09-02T02:33:43.989Z,2.92
2022-09-02T02:36:11.898Z,1.55
2022-09-02T02:38:39.716Z,1.80
2022-09-02T02:41:08.206Z,2.22
2022-09-02T02:43:35.733Z,4.90
2022-09-02T02:46:03.857Z,2.05
2022-09-02T02:48:31.076Z,3.83
2022-09-02T02:50:57.942Z,2.45
2022-09-02T02:53:25.074Z,1.88
2022-09-02T02:55:52.081Z,2.05
2022-09-02T02:58:18.971Z,1.45
2022-09-02T03:00:47.762Z,3.15
2022-09-02T03:03:19.786Z,1.90
2022-09-02T03:05:50.922Z,1.83
2022-09-02T03:08:21.183Z,2.97
2022-09-02T03:10:54.567Z,3.20
2022-09-02T03:13:25.479Z,1.60
2022-09-02T03:15:54.297Z,2.65
2022-09-02T03:18:22.395Z,2.97
2022-09-02T03:20:50.583Z,2.30
2022-09-02T03:23:18.992Z,1.90
2022-09-02T03:25:48.766Z,2.77
2022-09-02T03:28:24.964Z,2.75
2022-09-02T03:30:52.549Z,1.70
2022-09-02T03:33:19.669Z,7.25
2022-09-02T03:35:49.405Z,4.40
2022-09-02T03:38:16.471Z,4.43
2022-09-02T03:40:45.203Z,3.35
2022-09-02T03:43:12.745Z,3.60
2022-09-02T03:45:42.105Z,2.47
2022-09-02T03:48:14.690Z,1.45
2022-09-02T03:50:44.807Z,2.40
2022-09-02T03:53:20.192Z,1.40
2022-09-02T03:55:50.642Z,3.72
2022-09-02T03:58:21.113Z,3.05
2022-09-02T04:00:53.319Z,2.08
2022-09-02T04:03:23.169Z,4.65
2022-09-02T04:05:52.584Z,3.40
2022-09-02T04:08:22.245Z,2.90
2022-09-02T04:10:51.638Z,1.98
2022-09-02T04:13:19.518Z,3.45
2022-09-02T04:15:50.025Z,4.45
2022-09-02T04:18:21.431Z,6.68
2022-09-02T04:20:51.861Z,3.33
2022-09-02T04:23:20.072Z,5.30
2022-09-02T04:25:47.887Z,3.22
2022-09-02T04:28:17.111Z,3.42
2022-09-02T04:30:44.442Z,4.47
2022-09-02T04:33:13.911Z,2.42
2022-09-02T04:35:46.020Z,4.22
2022-09-02T04:38:16.975Z,4.78
2022-09-02T04:40:46.524Z,3.13
2022-09-02T04:43:14.189Z,3.05
2022-09-02T04:45:45.255Z,2.35
2022-09-02T04:48:14.772Z,3.88
2022-09-02T04:50:43.072Z,8.45
2022-09-02T04:53:10.740Z,6.40
2022-09-02T04:55:41.707Z,4.35
2022-09-02T04:58:11.384Z,2.40
2022-09-02T05:00:40.150Z,2.63
2022-09-02T05:03:15.296Z,15.35
2022-09-02T05:05:44.614Z,6.95
2022-09-02T05:08:13.410Z,5.63
2022-09-02T05:10:42.597Z,6.32
2022-09-02T05:13:09.632Z,7.93
2022-09-02T05:15:41.042Z,5.03
2022-09-02T05:18:10.303Z,8.15
2022-09-02T05:20:40.054Z,4.28
2022-09-02T05:23:07.479Z,3.47
2022-09-02T05:25:34.935Z,8.07
2022-09-02T05:28:02.123Z,34.90
2022-09-02T05:30:29.468Z,40.10
2022-09-02T05:32:56.456Z,32.67
2022-09-02T05:35:23.655Z,23.85
2022-09-02T05:37:51.182Z,10.13
2022-09-02T05:40:18.203Z,6.65
2022-09-02T05:42:50.337Z,8.57
2022-09-02T05:45:17.958Z,5.15
2022-09-02T05:47:45.052Z,11.68
2022-09-02T05:50:15.413Z,12.63
2022-09-02T05:52:44.714Z,13.90
2022-09-02T05:55:11.788Z,7.80
2022-09-02T05:57:40.151Z,6.95
2022-09-02T06:00:10.293Z,6.95
2022-09-02T06:02:50.028Z,5.38
2022-09-02T06:05:25.861Z,3.25
2022-09-02T06:08:11.418Z,3.45
2022-09-02T06:10:43.418Z,3.70
2022-09-02T06:13:13.093Z,2.42
2022-09-02T06:15:46.465Z,2.33
2022-09-02T06:18:14.510Z,2.28
2022-09-02T06:20:46.477Z,3.00
2022-09-02T06:23:15.360Z,2.88
2022-09-02T06:25:45.744Z,2.75
2022-09-02T06:28:15.087Z,3.88
2022-09-02T06:30:48.581Z,1.60
2022-09-02T06:33:17.939Z,4.97
2022-09-02T06:35:46.897Z,1.42
2022-09-02T06:38:17.380Z,2.50
2022-09-02T06:40:53.146Z,3.05
2022-09-02T06:43:26.763Z,5.40
2022-09-02T06:46:07.629Z,2.13
2022-09-02T06:48:36.638Z,2.83
2022-09-02T06:51:05.914Z,2.08
2022-09-02T06:53:32.948Z,1.52
2022-09-02T06:56:00.032Z,3.28
2022-09-02T06:58:27.042Z,1.33
2022-09-02T07:00:54.523Z,2.13
2022-09-02T07:03:40.662Z,3.47
2022-09-02T07:06:11.078Z,5.75
2022-09-02T07:08:43.729Z,3.47
2022-09-02T07:11:21.114Z,2.90
2022-09-02T07:13:50.505Z,1.88
2022-09-02T07:16:22.741Z,1.55
2022-09-02T07:18:55.879Z,4.32
2022-09-02T07:21:23.723Z,2.33
2022-09-02T07:23:50.814Z,3.58
2022-09-02T07:26:19.395Z,1.77
2022-09-02T07:28:48.034Z,2.72
2022-09-02T07:31:17.292Z,2.42
2022-09-02T07:33:45.639Z,1.30
2022-09-02T07:36:21.755Z,2.42
2022-09-02T07:38:49.440Z,3.03
2022-09-02T07:41:16.895Z,4.60
2022-09-02T07:43:47.221Z,3.53
2022-09-02T07:46:17.506Z,2.05
2022-09-02T07:48:45.016Z,4.18
2022-09-02T07:51:13.931Z,5.18
2022-09-02T07:53:41.267Z,6.53
2022-09-02T07:56:08.602Z,2.17
2022-09-02T07:58:35.654Z,2.30
2022-09-02T08:01:03.766Z,2.95
2022-09-02T08:03:31.369Z,3.15
2022-09-02T08:05:59.006Z,3.05
2022-09-02T08:08:27.748Z,3.33
2022-09-02T08:10:55.416Z,6.32
2022-09-02T08:13:27.039Z,2.67
2022-09-02T08:15:55.170Z,2.42
2022-09-02T08:18:22.865Z,2.67
2022-09-02T08:20:50.513Z,3.05
2022-09-02T08:23:26.642Z,2.08
2022-09-02T08:26:03.070Z,2.85
2022-09-02T08:28:32.094Z,1.05
2022-09-02T08:30:59.601Z,1.30
2022-09-02T08:33:26.673Z,3.45
2022-09-02T08:35:53.581Z,1.52
2022-09-02T08:38:22.224Z,2.22
2022-09-02T08:40:51.481Z,2.47
2022-09-02T08:43:41.887Z,1.65
2022-09-02T08:46:12.532Z,1.67
2022-09-02T08:48:59.826Z,2.15
2022-09-02T08:51:38.098Z,2.67
2022-09-02T08:54:05.108Z,1.00
2022-09-02T08:56:32.455Z,1.85
2022-09-02T08:59:04.077Z,3.88
2022-09-02T09:04:24.713Z,2.00
2022-09-02T09:07:06.483Z,0.98
2022-09-02T09:10:08.653Z,1.63
2022-09-02T09:12:54.590Z,2.35
2022-09-02T09:30:44.932Z,0.95
2022-09-02T09:33:15.147Z,1.73
2022-09-02T09:35:53.053Z,4.90
2022-09-02T09:38:30.237Z,1.17
2022-09-02T09:41:16.617Z,1.63
2022-09-02T09:59:30.413Z,0.70
2022-09-02T10:01:57.287Z,6.60
2022-09-02T10:04:42.720Z,0.95
2022-09-02T10:14:46.458Z,0.77
2022-09-02T11:06:06.176Z,1.88
2022-09-02T11:11:21.464Z,2.58
2022-09-02T11:14:00.554Z,2.58
2022-09-02T11:19:37.241Z,1.63
2022-09-02T11:22:28.452Z,1.00
2022-09-02T11:25:23.773Z,1.33
2022-09-02T11:28:03.838Z,1.35
2022-09-02T11:36:49.756Z,5.35
2022-09-02T11:40:06.688Z,6.43
2022-09-02T11:43:03.399Z,1.33
2022-09-02T11:45:55.569Z,1.88
2022-09-02T11:48:51.866Z,0.80
2022-09-02T11:51:32.655Z,0.73
2022-09-02T11:54:04.699Z,4.65
2022-09-02T11:56:39.115Z,1.05
2022-09-02T11:59:07.098Z,1.38
2022-09-02T12:01:54.649Z,1.08
2022-09-02T12:07:15.432Z,1.15
2022-09-02T12:12:37.471Z,1.75
2022-09-02T12:15:11.689Z,1.13
2022-09-02T12:17:44.411Z,1.83
2022-09-02T12:20:41.704Z,1.27
2022-09-02T12:23:31.529Z,0.77
2022-09-02T12:26:07.186Z,2.45
2022-09-02T12:28:34.120Z,2.75
2022-09-02T12:31:10.535Z,1.75
2022-09-02T12:33:38.840Z,3.95
2022-09-02T12:36:11.541Z,0.80
2022-09-02T12:38:44.213Z,2.50
2022-09-02T12:41:24.487Z,2.65
2022-09-02T12:43:57.996Z,1.13
2022-09-02T12:46:28.979Z,1.08
2022-09-02T12:49:06.184Z,0.70
2022-09-02T12:52:01.798Z,1.92
2022-09-02T12:54:39.291Z,0.88
2022-09-02T12:57:07.695Z,1.02
2022-09-02T12:59:37.684Z,6.90
2022-09-02T13:02:30.844Z,1.58
2022-09-02T13:05:09.992Z,1.42
2022-09-02T13:08:22.075Z,0.70
2022-09-02T13:11:26.498Z,0.70
2022-09-02T13:14:22.468Z,2.08
2022-09-02T13:17:36.097Z,0.90
2022-09-02T13:20:31.588Z,2.00
2022-09-02T13:23:17.583Z,3.92
2022-09-02T13:26:09.578Z,0.77
2022-09-02T13:28:58.475Z,1.42
2022-09-02T13:31:28.994Z,1.85
2022-09-02T13:34:10.260Z,0.83
2022-09-02T13:36:47.427Z,1.50
2022-09-02T13:39:19.110Z,1.63
2022-09-02T13:41:47.822Z,1.65
2022-09-02T13:44:26.829Z,1.77
2022-09-02T13:47:13.570Z,2.40
2022-09-02T13:49:42.310Z,1.85
2022-09-02T13:52:17.462Z,2.08
2022-09-02T13:54:52.697Z,2.25
2022-09-02T13:57:24.450Z,1.05
2022-09-02T13:59:55.620Z,1.35
2022-09-02T14:02:34.576Z,1.42
2022-09-02T14:05:20.317Z,2.75
2022-09-02T14:07:50.784Z,2.00
2022-09-02T14:10:21.370Z,0.93
2022-09-02T14:12:51.371Z,0.75
2022-09-02T14:15:28.095Z,0.70
2022-09-02T14:18:25.206Z,1.40
2022-09-02T14:20:58.510Z,2.05
2022-09-02T14:23:28.928Z,1.98
2022-09-02T14:25:59.091Z,1.90
2022-09-02T14:28:32.117Z,1.85
2022-09-02T14:31:01.126Z,2.65
2022-09-02T14:33:46.822Z,2.53
2022-09-02T14:36:21.521Z,1.30
2022-09-02T14:38:48.966Z,1.55
2022-09-02T14:41:18.707Z,0.50
2022-09-02T14:43:51.737Z,1.95
2022-09-02T14:46:37.453Z,1.00
2022-09-02T14:49:17.646Z,3.15
2022-09-02T14:51:48.583Z,1.55
2022-09-02T14:54:42.357Z,1.25
2022-09-02T14:57:33.430Z,1.02
2022-09-02T15:00:02.605Z,3.40
2022-09-02T15:02:34.714Z,0.65
2022-09-02T15:05:07.722Z,0.70
2022-09-02T15:07:34.723Z,0.93
2022-09-02T15:10:02.477Z,1.98
2022-09-02T15:12:33.251Z,2.05
2022-09-02T15:15:00.310Z,1.08
2022-09-02T15:17:30.945Z,5.25
2022-09-02T15:19:58.338Z,2.72
2022-09-02T15:22:26.430Z,3.40
2022-09-02T15:24:53.535Z,2.42
2022-09-02T15:27:21.865Z,1.85
2022-09-02T15:29:49.419Z,1.33
2022-09-02T15:32:17.729Z,0.65
2022-09-02T15:34:46.864Z,1.27
2022-09-02T15:37:14.219Z,1.30
2022-09-02T15:39:41.411Z,0.93
2022-09-02T15:42:08.556Z,1.15
2022-09-02T15:44:35.536Z,1.50
2022-09-02T15:47:02.975Z,5.70
2022-09-02T15:49:30.890Z,1.80
2022-09-02T15:51:59.453Z,1.45
2022-09-02T15:54:26.430Z,1.40
2022-09-02T15:56:58.882Z,1.50
2022-09-02T15:59:26.647Z,2.50
2022-09-02T16:01:56.500Z,2.03
2022-09-02T16:04:23.709Z,5.10
2022-09-02T16:06:52.707Z,0.70
2022-09-02T16:09:21.162Z,3.58
2022-09-02T16:11:51.937Z,0.60
2022-09-02T16:14:21.184Z,4.03
2022-09-02T16:16:50.625Z,6.20
2022-09-02T16:19:22.155Z,2.03
2022-09-02T16:21:50.249Z,1.27
2022-09-02T16:24:20.193Z,0.80
2022-09-02T16:26:47.709Z,0.82
2022-09-02T16:29:16.835Z,2.58
2022-09-02T16:31:47.699Z,1.02
2022-09-02T16:34:24.555Z,0.93
2022-09-02T16:36:51.979Z,1.02
2022-09-02T16:39:20.157Z,0.75
2022-09-02T16:41:54.445Z,1.42
2022-09-02T16:44:23.462Z,2.72
2022-09-02T16:46:52.279Z,0.65
2022-09-02T16:49:22.676Z,0.82
2022-09-02T16:51:57.793Z,0.82
2022-09-02T16:54:31.428Z,1.10
2022-09-02T16:57:01.579Z,1.83
2022-09-02T16:59:29.192Z,1.38
2022-09-02T17:01:56.513Z,0.95
2022-09-02T17:04:25.187Z,2.47
2022-09-02T17:06:52.214Z,2.90
2022-09-02T17:09:19.400Z,1.00
2022-09-02T17:11:46.421Z,1.02
2022-09-02T17:14:16.455Z,1.77
2022-09-02T17:16:46.556Z,3.13
2022-09-02T17:19:22.032Z,1.10
2022-09-02T17:21:54.178Z,0.73
2022-09-02T17:24:23.716Z,1.20
2022-09-02T17:26:56.569Z,2.85
2022-09-02T17:29:48.159Z,0.88
2022-09-02T17:32:13.919Z,2.17
2022-09-02T17:34:41.092Z,2.20
2022-09-02T17:37:08.501Z,5.25
2022-09-02T17:39:35.353Z,2.65
2022-09-02T17:42:06.721Z,1.25
2022-09-02T17:44:39.796Z,2.45
2022-09-02T17:47:11.783Z,1.92
2022-09-02T17:49:44.766Z,0.73
2022-09-02T17:52:16.463Z,1.17
2022-09-02T17:54:43.589Z,1.00
2022-09-02T17:57:32.330Z,8.93
2022-09-02T18:00:11.383Z,0.88
2022-09-02T18:02:38.812Z,1.35
2022-09-02T18:05:22.910Z,1.75
2022-09-02T18:08:18.684Z,1.10
2022-09-02T18:10:57.821Z,1.17
2022-09-02T18:14:07.736Z,3.60
2022-09-02T18:16:52.974Z,3.05
2022-09-02T18:19:46.716Z,1.17
2022-09-02T18:22:46.836Z,3.53
2022-09-02T18:25:43.213Z,1.33
2022-09-02T18:28:26.191Z,1.00
2022-09-02T18:31:15.267Z,1.00
2022-09-02T18:34:04.135Z,6.07
2022-09-02T18:36:57.062Z,1.83
2022-09-02T18:39:57.338Z,1.33
2022-09-02T18:42:41.992Z,0.95
2022-09-02T18:45:21.725Z,2.90
2022-09-02T18:48:05.024Z,2.88
2022-09-02T18:50:49.890Z,1.83
2022-09-02T18:53:23.250Z,0.60
2022-09-02T18:55:52.816Z,1.63
2022-09-02T18:58:37.875Z,0.82
2022-09-02T19:01:15.666Z,0.77
2022-09-02T19:03:42.519Z,2.58
2022-09-02T19:06:20.672Z,1.00
2022-09-02T19:08:57.287Z,2.15
2022-09-02T19:11:26.060Z,2.85
2022-09-02T19:14:19.569Z,1.17
2022-09-02T19:16:47.317Z,2.15
2022-09-02T19:19:16.936Z,1.67
2022-09-02T19:21:58.746Z,2.05
2022-09-02T19:27:04.936Z,3.22
2022-09-02T19:29:34.289Z,3.70
2022-09-02T19:32:02.405Z,2.40
2022-09-02T19:34:35.846Z,3.67
2022-09-02T19:37:04.923Z,0.60
2022-09-02T19:39:33.346Z,3.30
2022-09-02T19:42:05.241Z,3.72
2022-09-02T19:44:33.460Z,2.53
2022-09-02T19:49:48.442Z,3.83
2022-09-02T19:52:15.518Z,1.40
2022-09-02T19:54:44.518Z,2.05
2022-09-02T19:57:11.400Z,1.25
2022-09-02T19:59:38.283Z,4.78
2022-09-02T20:02:06.533Z,2.05
2022-09-02T20:04:33.516Z,0.50
2022-09-02T20:07:02.594Z,3.92
2022-09-02T20:09:29.723Z,1.02
2022-09-02T20:11:56.793Z,1.60
2022-09-02T20:14:23.753Z,0.93
2022-09-02T20:16:57.350Z,1.25
2022-09-02T20:19:26.785Z,2.38
2022-09-02T20:21:54.081Z,4.53
2022-09-02T20:24:25.705Z,1.13
2022-09-02T20:27:30.464Z,1.27
2022-09-02T20:30:09.126Z,1.27
2022-09-02T20:32:43.535Z,0.60
2022-09-02T20:35:34.296Z,2.05
2022-09-02T20:38:26.233Z,0.75
2022-09-02T20:41:17.841Z,0.73
2022-09-02T20:44:06.833Z,1.17
2022-09-02T20:47:01.645Z,2.58
2022-09-02T20:49:46.190Z,1.00
2022-09-02T20:52:25.335Z,0.65
2022-09-02T20:55:22.501Z,1.27
2022-09-02T20:57:50.814Z,2.65
2022-09-02T21:00:22.070Z,1.50
2022-09-02T21:02:55.718Z,1.13
2022-09-02T21:05:28.794Z,0.65
2022-09-02T21:08:06.637Z,1.52
2022-09-02T21:10:40.092Z,0.63
2022-09-02T21:13:29.462Z,1.00
2022-09-02T21:16:02.048Z,4.57
2022-09-02T21:21:38.338Z,1.67
2022-09-02T21:24:21.502Z,0.85
2022-09-02T21:26:56.727Z,1.15
2022-09-02T21:29:37.478Z,1.48
2022-09-02T21:32:29.047Z,0.90
2022-09-02T21:35:11.229Z,0.95
2022-09-02T21:37:40.312Z,1.80
2022-09-02T21:40:19.006Z,3.90
2022-09-02T21:43:23.050Z,1.95
2022-09-02T21:46:01.936Z,2.92
2022-09-02T21:48:59.222Z,1.85
2022-09-02T21:51:47.309Z,2.35
2022-09-02T21:54:20.175Z,3.53
2022-09-02T21:57:05.620Z,1.25
2022-09-02T21:59:54.393Z,3.10
2022-09-02T22:02:35.164Z,0.88
2022-09-02T22:05:22.993Z,2.22
2022-09-02T22:08:01.060Z,2.75
2022-09-02T22:10:39.223Z,1.17
2022-09-02T22:13:07.950Z,1.50
2022-09-02T22:15:58.303Z,2.15
2022-09-02T22:19:02.764Z,1.08
2022-09-02T22:21:32.278Z,1.00
2022-09-02T22:24:02.095Z,1.15
2022-09-02T22:26:42.647Z,1.45
2022-09-02T22:29:20.014Z,1.25
2022-09-02T22:31:49.159Z,1.85
2022-09-02T22:34:18.630Z,1.48
2022-09-02T22:37:02.646Z,3.85
2022-09-02T22:39:36.024Z,3.42
2022-09-02T22:42:14.081Z,1.00
2022-09-02T22:45:06.155Z,3.33
2022-09-02T22:47:54.434Z,1.90
2022-09-02T22:51:05.155Z,1.08
2022-09-02T22:53:31.968Z,1.63
2022-09-02T22:56:04.211Z,3.08
2022-09-02T22:59:02.680Z,1.30
2022-09-02T23:01:41.837Z,2.00
2022-09-02T23:04:20.769Z,2.20
2022-09-02T23:06:47.725Z,3.10
2022-09-02T23:09:15.896Z,3.22
2022-09-02T23:11:51.387Z,5.38
2022-09-02T23:14:19.407Z,2.05
2022-09-02T23:16:55.527Z,3.38
2022-09-02T23:19:53.807Z,3.22
2022-09-02T23:22:50.166Z,3.40
2022-09-02T23:25:36.200Z,1.80
2022-09-02T23:28:18.729Z,1.23
2022-09-02T23:30:45.529Z,1.20
2022-09-02T23:33:25.843Z,2.10
2022-09-02T23:36:11.828Z,1.70
2022-09-02T23:39:04.449Z,1.63
2022-09-02T23:41:31.512Z,1.10
2022-09-02T23:43:59.369Z,1.17
2022-09-02T23:46:44.290Z,1.13
2022-09-02T23:49:40.336Z,1.70
2022-09-02T23:52:39.731Z,1.02
2022-09-02T23:55:41.851Z,1.83
2022-09-02T23:58:23.173Z,2.08
